Time;durP1;ratioP1;P1;durP2;ratioP2;P2;SDS_P1;SDS_P2;PMS_P1;PMS_P2;Temp;Humidity;BMP_temperature;BMP_pressure;BME280_temperature;BME280_humidity;BME280_pressure;Samples;Min_cycle;Max_cycle;Signal;HPM_P1;HPM_P2
2022/03/31 00:00:44;;;;;;;10.30;7.45;;;;;;;5.43;68.55;100086.44;5023047;28;20050;-64
2022/03/31 00:03:15;;;;;;;10.60;7.93;;;;;;;5.52;68.19;100087.00;5024421;28;20036;-65
2022/03/31 00:05:41;;;;;;;11.15;7.25;;;;;;;5.72;67.00;100087.75;5024174;28;20476;-65
2022/03/31 00:08:15;;;;;;;10.75;5.90;;;;;;;5.86;66.71;100083.06;5023480;28;20024;-65
2022/03/31 00:10:49;;;;;;;9.80;6.00;;;;;;;5.67;67.66;100087.56;5023817;28;20069;-65
2022/03/31 00:13:19;;;;;;;7.78;5.10;;;;;;;5.86;66.97;100090.41;5024168;28;20136;-64
2022/03/31 00:15:45;;;;;;;12.73;7.40;;;;;;;5.60;68.21;100086.75;5022857;28;20045;-65
2022/03/31 00:18:12;;;;;;;13.25;8.35;;;;;;;5.58;68.47;100078.00;5023853;28;20021;-64
2022/03/31 00:23:59;;;;;;;12.55;8.50;;;;;;;5.32;69.77;100075.34;5023936;28;20080;-64
2022/03/31 00:26:24;;;;;;;11.10;6.53;;;;;;;5.27;69.31;100073.31;5022946;28;20065;-64
2022/03/31 00:28:50;;;;;;;11.75;8.65;;;;;;;5.34;69.84;100081.44;5022649;28;20030;-64
2022/03/31 00:31:15;;;;;;;12.30;8.98;;;;;;;5.12;71.53;100081.72;5022123;28;20029;-65
2022/03/31 00:33:41;;;;;;;11.68;8.52;;;;;;;5.10;71.55;100081.09;5024277;28;20752;-65
2022/03/31 00:36:06;;;;;;;12.73;8.00;;;;;;;5.16;71.16;100085.66;5024752;28;20423;-64
2022/03/31 00:38:32;;;;;;;11.43;8.10;;;;;;;5.12;71.73;100076.28;5021906;28;20373;-64
2022/03/31 00:40:57;;;;;;;12.50;8.55;;;;;;;5.01;72.09;100076.09;5023736;28;20029;-64
2022/03/31 00:43:22;;;;;;;12.32;9.20;;;;;;;5.07;71.82;100076.09;5021069;28;20036;-65
2022/03/31 00:45:48;;;;;;;12.02;8.80;;;;;;;5.06;72.07;100084.44;5023108;28;20104;-65
2022/03/31 00:48:15;;;;;;;12.20;8.88;;;;;;;5.08;71.88;100079.66;5023515;28;20372;-65
2022/03/31 00:50:41;;;;;;;12.77;8.88;;;;;;;5.11;72.11;100090.09;5022574;28;20069;-65
2022/03/31 00:53:08;;;;;;;13.43;9.68;;;;;;;5.15;72.42;100089.44;5022259;28;20037;-64
2022/03/31 00:55:34;;;;;;;15.30;9.65;;;;;;;5.14;72.28;100086.94;5022311;28;20030;-64
2022/03/31 00:58:01;;;;;;;13.45;8.82;;;;;;;5.10;72.25;100072.91;5022554;28;20040;-64
2022/03/31 01:00:27;;;;;;;12.93;9.48;;;;;;;5.06;72.70;100073.56;5006548;28;20050;-64
2022/03/31 01:02:52;;;;;;;14.15;9.50;;;;;;;5.02;72.86;100067.72;5021884;28;20665;-64
2022/03/31 01:05:18;;;;;;;13.73;9.60;;;;;;;5.04;72.84;100075.66;5023073;28;20056;-64
2022/03/31 01:07:43;;;;;;;15.85;10.07;;;;;;;5.04;73.24;100076.50;5022410;28;20068;-64
2022/03/31 01:10:11;;;;;;;13.82;9.18;;;;;;;5.38;71.48;100071.78;5021061;28;20053;-65
2022/03/31 01:12:37;;;;;;;15.95;10.75;;;;;;;5.15;72.69;100072.28;5013437;28;20404;-64
2022/03/31 01:15:22;;;;;;;16.38;10.85;;;;;;;4.99;74.03;100073.59;5014691;28;20128;-64
2022/03/31 01:17:49;;;;;;;15.18;9.80;;;;;;;4.99;73.83;100065.41;5019669;28;20041;-64
2022/03/31 01:20:20;;;;;;;14.73;10.07;;;;;;;4.89;74.97;100059.59;5022525;28;20380;-64
2022/03/31 01:22:46;;;;;;;16.10;10.18;;;;;;;4.98;74.07;100055.59;5021521;28;20799;-64
2022/03/31 01:25:12;;;;;;;15.80;10.30;;;;;;;4.87;75.44;100048.94;5021719;28;20029;-64
2022/03/31 01:27:41;;;;;;;15.05;9.77;;;;;;;4.99;74.74;100056.44;5023203;28;20022;-64
2022/03/31 01:30:13;;;;;;;15.10;9.88;;;;;;;5.41;72.87;100047.66;5023612;28;20034;-64
2022/03/31 01:32:39;;;;;;;12.35;9.05;;;;;;;4.86;75.37;100051.84;5021528;28;20044;-65
2022/03/31 01:35:06;;;;;;;15.65;9.60;;;;;;;4.90;75.01;100056.66;5023233;28;20039;-64
2022/03/31 01:37:32;;;;;;;13.50;8.90;;;;;;;4.92;74.97;100051.00;5019373;28;20029;-64
2022/03/31 01:39:59;;;;;;;17.63;10.18;;;;;;;4.82;75.39;100058.78;5020747;28;20033;-64
2022/03/31 01:42:26;;;;;;;17.23;10.25;;;;;;;4.99;74.42;100051.81;5022635;28;20040;-64
2022/03/31 01:44:52;;;;;;;15.30;10.55;;;;;;;4.64;77.71;100049.38;5022575;28;20030;-64
2022/03/31 01:47:18;;;;;;;15.30;11.02;;;;;;;4.59;77.69;100051.91;5021940;28;20021;-64
2022/03/31 01:49:44;;;;;;;16.35;11.15;;;;;;;4.57;78.57;100048.56;5021638;28;20033;-64
2022/03/31 01:52:10;;;;;;;15.60;11.52;;;;;;;4.54;79.00;100051.69;5022371;28;20033;-65
2022/03/31 01:54:35;;;;;;;15.93;11.15;;;;;;;4.52;79.95;100048.38;5022235;28;20017;-64
2022/03/31 01:57:01;;;;;;;15.98;11.13;;;;;;;4.51;79.49;100040.41;5019381;28;20032;-64
2022/03/31 01:59:37;;;;;;;15.48;9.98;;;;;;;4.96;75.82;100035.91;5021558;28;20071;-64
2022/03/31 02:02:03;;;;;;;18.23;10.75;;;;;;;4.58;77.88;100036.63;5022640;28;20061;-64
2022/03/31 02:04:28;;;;;;;15.95;8.27;;;;;;;4.89;76.03;100035.09;5029693;28;20444;-64
2022/03/31 02:06:54;;;;;;;14.88;8.77;;;;;;;4.73;77.48;100030.13;5026742;28;20036;-64
2022/03/31 02:09:20;;;;;;;15.77;10.27;;;;;;;4.96;75.61;100030.47;5021693;28;20135;-65
2022/03/31 02:11:46;;;;;;;18.50;12.63;;;;;;;4.38;79.14;100033.09;5022738;28;20145;-64
2022/03/31 02:14:13;;;;;;;18.08;12.55;;;;;;;4.29;81.27;100034.34;5022465;28;20128;-65
2022/03/31 02:16:38;;;;;;;20.35;12.68;;;;;;;4.28;81.84;100029.97;5022391;28;20380;-65
2022/03/31 02:19:04;;;;;;;18.40;12.65;;;;;;;4.36;81.32;100032.50;5017480;28;20033;-64
2022/03/31 02:21:29;;;;;;;20.92;12.68;;;;;;;4.28;82.88;100024.53;5013709;28;20040;-64
2022/03/31 02:23:54;;;;;;;16.70;11.93;;;;;;;4.23;83.65;100019.72;5013182;28;20484;-64
2022/03/31 02:26:20;;;;;;;19.55;12.70;;;;;;;4.20;84.73;100019.31;5020622;28;20124;-64
2022/03/31 02:28:45;;;;;;;17.60;12.07;;;;;;;4.12;85.15;100014.94;5021296;28;20112;-65
2022/03/31 02:31:11;;;;;;;18.23;12.90;;;;;;;4.05;85.84;100014.91;5021975;28;20041;-65
2022/03/31 02:33:36;;;;;;;17.92;13.13;;;;;;;3.99;85.95;100007.59;5025690;28;20045;-64
2022/03/31 02:36:02;;;;;;;18.23;12.88;;;;;;;3.92;86.32;100014.91;5025662;28;20060;-65
2022/03/31 02:38:27;;;;;;;18.90;13.45;;;;;;;3.91;86.56;100007.81;5022503;28;20053;-65
2022/03/31 02:40:52;;;;;;;20.70;14.82;;;;;;;3.86;86.73;100013.03;5026022;28;20044;-65
2022/03/31 02:43:18;;;;;;;20.63;14.00;;;;;;;3.80;86.20;100000.25;5026259;28;20467;-64
2022/03/31 02:45:43;;;;;;;23.45;15.32;;;;;;;3.77;86.47;100006.13;5024939;28;20112;-65
2022/03/31 02:48:08;;;;;;;19.90;14.68;;;;;;;3.76;87.10;100007.19;5026279;28;20021;-65
2022/03/31 02:50:33;;;;;;;21.77;15.23;;;;;;;3.75;87.22;100006.34;5026804;28;20060;-64
2022/03/31 02:55:43;;;;;;;12.35;9.30;;;;;;;3.71;88.07;100004.25;5023658;28;20055;-64
2022/03/31 02:58:08;;;;;;;12.65;9.38;;;;;;;3.67;88.34;100011.97;5022864;28;20117;-65
2022/03/31 03:00:36;;;;;;;12.18;9.10;;;;;;;3.67;88.41;100006.53;5022955;28;20057;-64
2022/03/31 03:03:03;;;;;;;12.30;9.52;;;;;;;3.58;88.51;100000.44;5026609;28;20673;-64
2022/03/31 03:05:29;;;;;;;11.00;8.63;;;;;;;3.48;87.82;99997.28;5027455;28;20284;-64
2022/03/31 03:07:54;;;;;;;11.10;8.10;;;;;;;3.38;88.34;99991.44;5022219;28;20029;-64
2022/03/31 03:10:20;;;;;;;10.10;7.38;;;;;;;3.31;88.58;99985.97;5025390;28;20028;-64
2022/03/31 03:12:49;;;;;;;9.80;7.70;;;;;;;3.24;88.84;99984.28;5025876;28;20067;-65
2022/03/31 03:15:16;;;;;;;10.93;7.90;;;;;;;3.13;88.63;99983.00;5025183;28;20021;-64
2022/03/31 03:17:44;;;;;;;10.02;7.32;;;;;;;3.09;88.91;99982.59;5025572;28;20029;-65
2022/03/31 03:20:13;;;;;;;9.30;7.15;;;;;;;3.02;88.43;99972.75;5024050;28;20122;-65
2022/03/31 03:22:48;;;;;;;10.10;6.97;;;;;;;2.97;88.94;99969.81;5024698;28;20029;-65
2022/03/31 03:25:18;;;;;;;8.80;6.63;;;;;;;2.97;89.37;99972.50;5024756;28;20100;-64
2022/03/31 03:27:44;;;;;;;9.00;6.88;;;;;;;2.96;89.60;99968.97;5025433;28;20052;-64
2022/03/31 03:30:10;;;;;;;9.10;6.95;;;;;;;2.90;90.08;99977.09;5024876;28;20034;-65
2022/03/31 03:32:36;;;;;;;9.38;7.20;;;;;;;2.89;89.69;99973.53;5024969;28;20104;-64
2022/03/31 03:35:04;;;;;;;9.70;6.93;;;;;;;2.89;89.15;99967.25;5024587;28;20033;-64
2022/03/31 03:37:29;;;;;;;8.90;6.85;;;;;;;2.84;89.79;99970.59;5023072;28;20017;-64
2022/03/31 03:39:55;;;;;;;8.55;6.90;;;;;;;2.82;89.44;99978.91;5025325;28;20044;-64
2022/03/31 03:42:20;;;;;;;9.27;7.13;;;;;;;2.84;89.10;99973.31;5024147;28;20838;-64
2022/03/31 03:44:45;;;;;;;8.98;7.10;;;;;;;2.81;89.73;99985.38;5023435;28;20499;-64
2022/03/31 03:47:11;;;;;;;8.95;6.75;;;;;;;2.82;89.41;99978.91;5023488;28;20128;-64
2022/03/31 03:49:36;;;;;;;8.55;6.47;;;;;;;2.81;89.01;99984.53;5023969;28;20080;-64
2022/03/31 03:52:01;;;;;;;8.30;6.60;;;;;;;2.79;89.14;99990.19;5023498;28;20029;-64
2022/03/31 03:54:27;;;;;;;9.02;6.65;;;;;;;2.78;89.05;99988.47;5023330;28;20076;-64
2022/03/31 03:56:52;;;;;;;8.95;6.10;;;;;;;2.76;89.03;99979.72;5024674;28;20025;-65
2022/03/31 03:59:18;;;;;;;8.85;6.15;;;;;;;2.73;89.14;99984.69;5022264;28;20049;-65
2022/03/31 04:01:44;;;;;;;11.32;6.43;;;;;;;2.77;89.65;99988.69;5023628;28;20476;-64
2022/03/31 04:04:09;;;;;;;8.80;6.80;;;;;;;2.79;89.35;99989.34;5024832;28;20068;-65
2022/03/31 04:06:36;;;;;;;9.15;6.68;;;;;;;2.82;89.11;99992.47;5024422;28;20060;-64
2022/03/31 04:09:01;;;;;;;8.75;6.65;;;;;;;2.76;88.77;99984.31;5022712;28;20472;-65
2022/03/31 04:11:27;;;;;;;8.27;6.60;;;;;;;2.72;88.81;99989.28;5023175;28;20036;-64
2022/03/31 04:13:52;;;;;;;8.27;6.30;;;;;;;2.73;88.98;99976.56;5020753;28;20365;-64
2022/03/31 04:16:17;;;;;;;8.77;6.20;;;;;;;2.72;88.91;99983.03;5019721;28;20033;-64
2022/03/31 04:18:42;;;;;;;9.52;7.03;;;;;;;2.70;88.95;99979.69;5019850;28;20041;-64
2022/03/31 04:21:10;;;;;;;10.32;6.20;;;;;;;2.69;88.94;99983.44;5020135;28;20404;-64
2022/03/31 04:23:35;;;;;;;9.32;6.22;;;;;;;2.66;89.01;99987.38;5014750;28;20111;-65
2022/03/31 04:26:00;;;;;;;8.88;6.25;;;;;;;2.67;89.70;99988.22;5018898;28;20116;-64
2022/03/31 04:28:26;;;;;;;8.98;5.97;;;;;;;2.66;89.63;99989.25;5018797;28;20537;-64
2022/03/31 04:30:51;;;;;;;8.45;5.85;;;;;;;2.65;89.13;99995.72;5019383;28;20055;-64
2022/03/31 04:33:16;;;;;;;11.23;9.52;;;;;;;2.54;89.68;99987.13;5024046;28;20079;-64
2022/03/31 04:35:42;;;;;;;8.95;6.90;;;;;;;2.42;90.25;99988.69;5022057;28;20044;-65
2022/03/31 04:38:07;;;;;;;8.40;6.00;;;;;;;2.40;90.24;99993.50;5022705;28;20444;-65
2022/03/31 04:40:32;;;;;;;8.43;5.80;;;;;;;2.39;90.21;99991.81;5023943;28;20053;-64
2022/03/31 04:42:58;;;;;;;9.10;6.03;;;;;;;2.42;90.62;100004.97;5022718;28;20262;-65
2022/03/31 04:45:23;;;;;;;7.80;5.93;;;;;;;2.41;91.02;100002.47;5023521;28;20053;-65
2022/03/31 04:47:49;;;;;;;8.75;6.07;;;;;;;2.36;90.97;99991.38;5023614;28;20029;-65
2022/03/31 04:50:14;;;;;;;8.68;6.40;;;;;;;2.36;90.82;100003.03;5023862;28;20030;-65
2022/03/31 04:52:41;;;;;;;8.38;6.30;;;;;;;2.33;90.83;100000.72;5020776;28;20022;-65
2022/03/31 04:55:07;;;;;;;8.48;6.07;;;;;;;2.30;90.72;100007.38;5023705;28;20419;-65
2022/03/31 04:57:33;;;;;;;9.20;6.57;;;;;;;2.31;90.88;99997.38;5024257;28;20032;-64
2022/03/31 04:59:58;;;;;;;9.93;6.68;;;;;;;2.29;90.74;99994.06;5021847;28;20460;-64
2022/03/31 05:02:23;;;;;;;10.77;6.90;;;;;;;2.30;90.71;99998.44;5022396;28;20062;-65
2022/03/31 05:04:49;;;;;;;10.65;6.78;;;;;;;2.20;90.86;100003.34;5024053;28;20027;-64
2022/03/31 05:07:14;;;;;;;10.43;6.53;;;;;;;2.17;91.20;99999.16;5020283;28;20021;-65
2022/03/31 05:09:41;;;;;;;9.35;6.63;;;;;;;2.18;91.90;99997.28;5020981;28;20064;-65
2022/03/31 05:12:07;;;;;;;11.55;6.78;;;;;;;2.20;91.37;100000.66;5023801;28;20086;-64
2022/03/31 05:14:33;;;;;;;10.23;5.75;;;;;;;2.17;91.93;100006.44;5024231;28;20191;-64
2022/03/31 05:16:58;;;;;;;7.32;5.10;;;;;;;2.23;91.17;99990.25;5022871;28;20040;-65
2022/03/31 05:19:24;;;;;;;8.07;4.93;;;;;;;2.18;91.26;99998.16;5023043;28;20021;-64
2022/03/31 05:21:49;;;;;;;7.95;5.22;;;;;;;2.16;91.44;100005.63;5020136;28;20045;-65
2022/03/31 05:24:17;;;;;;;6.80;4.63;;;;;;;2.16;91.19;100005.63;5022605;28;20175;-65
2022/03/31 05:26:43;;;;;;;7.10;4.28;;;;;;;2.16;90.71;100002.06;5021195;28;20087;-65
2022/03/31 05:29:08;;;;;;;6.70;4.40;;;;;;;2.15;91.09;100003.94;5022922;28;20112;-65
2022/03/31 05:31:33;;;;;;;6.57;4.55;;;;;;;2.12;90.69;100003.50;5021670;28;20037;-64
2022/03/31 05:33:59;;;;;;;6.95;4.78;;;;;;;2.08;90.47;100003.91;5021477;28;20037;-64
2022/03/31 05:36:24;;;;;;;6.68;4.53;;;;;;;2.05;90.30;100000.75;5019964;28;20108;-64
2022/03/31 05:38:49;;;;;;;6.38;4.38;;;;;;;1.98;90.91;99997.16;5021629;28;20029;-65
2022/03/31 05:41:14;;;;;;;7.32;4.40;;;;;;;1.91;90.72;99999.78;5021441;28;20179;-65
2022/03/31 05:43:40;;;;;;;6.78;4.68;;;;;;;1.83;90.94;100004.53;5022414;28;20025;-65
2022/03/31 05:46:05;;;;;;;6.38;4.47;;;;;;;1.82;90.79;100003.66;5020970;28;20045;-65
2022/03/31 05:48:30;;;;;;;7.28;4.78;;;;;;;1.72;91.11;100009.41;5018507;28;20400;-65
2022/03/31 05:50:56;;;;;;;6.93;4.57;;;;;;;1.63;91.37;100005.16;5021428;28;20056;-65
2022/03/31 05:53:21;;;;;;;7.40;4.47;;;;;;;1.56;91.87;100009.66;5020906;28;20028;-65
2022/03/31 05:55:46;;;;;;;8.70;5.43;;;;;;;1.51;91.94;100009.41;5022609;28;20033;-65
2022/03/31 05:58:11;;;;;;;7.95;5.05;;;;;;;1.50;92.57;100010.44;5022572;28;20033;-65
2022/03/31 06:00:37;;;;;;;7.05;4.60;;;;;;;1.48;92.66;100005.22;5021982;28;20549;-65
2022/03/31 06:03:03;;;;;;;6.88;4.40;;;;;;;1.44;93.23;100011.22;5018675;28;20026;-65
2022/03/31 06:05:28;;;;;;;7.55;4.80;;;;;;;1.46;93.00;100001.84;5022654;28;20033;-65
2022/03/31 06:07:53;;;;;;;8.25;4.97;;;;;;;1.44;93.23;100003.94;5023458;28;20040;-66
2022/03/31 06:10:20;;;;;;;7.70;4.65;;;;;;;1.47;93.08;100005.41;5027699;28;20033;-65
2022/03/31 06:12:48;;;;;;;8.55;5.25;;;;;;;1.48;93.20;100007.94;5025211;28;20155;-66
2022/03/31 06:15:15;;;;;;;7.25;4.57;;;;;;;1.51;93.05;100010.22;5026907;28;20440;-66
2022/03/31 06:17:42;;;;;;;7.03;4.70;;;;;;;1.50;93.27;100005.03;5026548;28;20526;-66
2022/03/31 06:20:09;;;;;;;8.50;4.85;;;;;;;1.48;93.33;100004.38;5028840;28;20083;-66
2022/03/31 06:22:34;;;;;;;8.55;5.68;;;;;;;1.44;93.23;99997.69;5026692;28;20965;-66
2022/03/31 06:25:00;;;;;;;9.23;6.07;;;;;;;1.42;93.35;99991.59;5023864;28;20263;-66
2022/03/31 06:27:25;;;;;;;8.95;5.78;;;;;;;1.38;93.52;100004.69;5026750;28;20142;-66
2022/03/31 06:29:52;;;;;;;8.90;5.72;;;;;;;1.38;93.51;100011.97;5024152;28;20128;-66
2022/03/31 06:32:18;;;;;;;8.90;6.05;;;;;;;1.35;93.58;99999.66;5026797;28;20053;-66
2022/03/31 06:34:44;;;;;;;10.02;6.43;;;;;;;1.41;93.85;100007.00;5026233;28;20068;-66
2022/03/31 06:37:09;;;;;;;9.65;6.40;;;;;;;1.44;94.02;100012.03;5023083;28;20060;-66
2022/03/31 06:39:35;;;;;;;8.70;6.10;;;;;;;1.51;94.00;100009.41;5027231;28;20025;-66
2022/03/31 06:42:00;;;;;;;9.43;6.43;;;;;;;1.56;93.81;100004.25;5026081;28;20128;-66
2022/03/31 06:44:26;;;;;;;8.88;5.97;;;;;;;1.58;93.47;100007.63;5025558;28;20156;-66
2022/03/31 06:46:51;;;;;;;9.10;6.43;;;;;;;1.54;93.63;100009.03;5026831;28;20022;-66
2022/03/31 06:49:17;;;;;;;8.93;6.35;;;;;;;1.51;93.75;100010.22;5025852;28;20642;-66
2022/03/31 06:51:48;;;;;;;9.68;7.13;;;;;;;1.53;93.71;100010.06;5025336;28;20037;-66
2022/03/31 06:54:13;;;;;;;9.45;7.28;;;;;;;1.53;94.19;100002.78;5026871;28;20022;-66
2022/03/31 06:56:39;;;;;;;8.70;6.47;;;;;;;1.54;94.10;100009.03;5026887;28;20045;-66
2022/03/31 06:59:04;;;;;;;10.73;7.05;;;;;;;1.54;94.34;100004.44;5025703;28;20124;-66
2022/03/31 07:01:30;;;;;;;10.18;7.40;;;;;;;1.59;94.06;100013.88;5025084;28;20069;-66
2022/03/31 07:03:55;;;;;;;10.02;6.68;;;;;;;1.61;94.18;100012.63;5021621;28;20025;-66
2022/03/31 07:06:22;;;;;;;10.50;8.02;;;;;;;1.61;94.18;100012.63;5023746;28;20025;-66
2022/03/31 07:08:47;;;;;;;11.45;7.53;;;;;;;1.66;94.55;100002.06;5021228;28;20392;-66
2022/03/31 07:11:13;;;;;;;9.95;7.40;;;;;;;1.71;94.34;100010.44;5030995;28;20029;-66
2022/03/31 07:13:39;;;;;;;9.98;7.43;;;;;;;1.79;94.69;100013.00;5024754;28;20017;-66
2022/03/31 07:16:04;;;;;;;12.30;8.10;;;;;;;1.77;94.11;100000.69;5027162;28;20632;-66
2022/03/31 07:18:30;;;;;;;11.27;7.60;;;;;;;1.82;94.04;100003.66;5024739;28;20091;-65
2022/03/31 07:20:57;;;;;;;10.10;7.30;;;;;;;1.77;93.79;99997.97;5023164;28;20488;-65
2022/03/31 07:23:23;;;;;;;11.10;8.35;;;;;;;1.73;94.13;100007.56;5018842;28;20029;-66
2022/03/31 07:25:49;;;;;;;10.88;7.90;;;;;;;1.73;94.28;100004.84;5020461;28;20052;-65
2022/03/31 07:28:17;;;;;;;10.95;8.48;;;;;;;1.76;94.00;100002.56;5020371;28;20068;-66
2022/03/31 07:30:42;;;;;;;11.53;9.20;;;;;;;1.75;94.03;100002.78;5024141;28;20022;-66
2022/03/31 07:33:09;;;;;;;12.25;8.38;;;;;;;1.76;93.94;100001.72;5022761;28;20327;-66
2022/03/31 07:35:37;;;;;;;10.90;8.18;;;;;;;1.76;94.28;99996.31;5023570;28;20057;-66
2022/03/31 07:38:03;;;;;;;14.63;8.95;;;;;;;1.78;94.34;100010.50;5022376;28;20041;-66
2022/03/31 07:40:29;;;;;;;12.75;8.77;;;;;;;1.76;94.37;100004.44;5023924;28;20065;-66
2022/03/31 07:42:55;;;;;;;12.02;8.50;;;;;;;1.83;93.87;100005.34;5022394;28;20061;-66
2022/03/31 07:45:21;;;;;;;11.15;8.40;;;;;;;1.85;94.46;100005.97;5023153;28;20028;-66
2022/03/31 07:47:46;;;;;;;12.60;8.18;;;;;;;1.89;93.79;100007.28;5020411;28;20401;-66
2022/03/31 07:50:13;;;;;;;11.70;8.40;;;;;;;1.92;94.17;100009.56;5021224;28;20436;-66
2022/03/31 07:52:40;;;;;;;11.10;8.20;;;;;;;1.98;94.34;100008.81;5034727;28;20029;-66
2022/03/31 07:55:08;;;;;;;11.57;8.60;;;;;;;2.00;93.99;100005.91;5027898;28;20033;-66
2022/03/31 07:57:33;;;;;;;11.63;8.70;;;;;;;2.09;94.06;100002.03;5027187;28;20021;-66
2022/03/31 07:59:59;;;;;;;11.05;8.30;;;;;;;2.17;94.18;99995.59;5022508;28;20096;-66
2022/03/31 08:02:25;;;;;;;10.32;7.72;;;;;;;2.24;94.33;100007.34;5023139;28;20079;-66
2022/03/31 08:04:51;;;;;;;10.90;8.00;;;;;;;2.26;94.01;100003.41;5020845;28;20116;-66
2022/03/31 08:07:17;;;;;;;8.85;6.78;;;;;;;2.30;93.60;100001.97;5021095;28;20040;-66
2022/03/31 08:09:42;;;;;;;9.98;7.40;;;;;;;2.32;93.64;100004.47;5020966;28;20161;-66
2022/03/31 08:12:08;;;;;;;11.23;7.40;;;;;;;2.30;93.30;99995.72;5023431;28;20087;-66
2022/03/31 08:14:33;;;;;;;11.18;8.35;;;;;;;2.27;93.33;99996.94;5027730;28;20036;-66
2022/03/31 08:16:59;;;;;;;10.40;8.43;;;;;;;2.35;93.36;99995.97;5020623;28;20034;-66
2022/03/31 08:19:24;;;;;;;10.45;7.45;;;;;;;2.41;93.37;99997.03;5022242;28;20036;-66
2022/03/31 08:21:49;;;;;;;9.10;7.35;;;;;;;2.38;93.29;99998.25;5021293;28;20030;-66
2022/03/31 08:24:16;;;;;;;10.63;7.97;;;;;;;2.42;93.81;99999.53;5020676;28;20373;-66
2022/03/31 08:26:43;;;;;;;10.52;7.75;;;;;;;2.47;94.18;99996.22;5019992;28;20022;-66
2022/03/31 08:29:10;;;;;;;11.25;7.72;;;;;;;2.54;94.34;99997.13;5022806;28;20116;-66
2022/03/31 08:31:36;;;;;;;11.65;8.32;;;;;;;2.54;93.53;100000.69;5021919;28;20044;-66
2022/03/31 08:34:02;;;;;;;11.05;8.15;;;;;;;2.55;93.67;99993.38;5021937;28;20117;-65
2022/03/31 08:36:28;;;;;;;12.93;8.82;;;;;;;2.63;94.06;99998.63;5018246;28;20032;-65
2022/03/31 08:38:53;;;;;;;11.85;8.68;;;;;;;2.63;93.55;99995.06;5021243;28;20033;-65
2022/03/31 08:41:22;;;;;;;11.35;8.63;;;;;;;2.66;93.22;99989.25;5017865;28;20120;-65
2022/03/31 08:43:48;;;;;;;11.68;8.45;;;;;;;2.70;94.14;99993.25;5021989;28;20033;-66
2022/03/31 08:46:14;;;;;;;16.95;10.57;;;;;;;2.76;94.20;99978.88;5019689;28;20029;-66
2022/03/31 08:48:40;;;;;;;15.68;9.95;;;;;;;2.86;94.65;99984.78;5021299;28;20083;-66
2022/03/31 08:51:05;;;;;;;14.45;11.07;;;;;;;2.92;93.84;99977.69;5022296;28;20029;-66
2022/03/31 08:53:33;;;;;;;12.00;8.35;;;;;;;2.89;93.23;99981.69;5020961;28;20033;-66
2022/03/31 08:55:58;;;;;;;16.80;11.93;;;;;;;3.02;93.71;99987.13;5022228;28;20494;-66
2022/03/31 08:58:25;;;;;;;15.10;9.90;;;;;;;3.13;93.56;99983.00;5015534;28;20014;-66
2022/03/31 09:00:50;;;;;;;12.88;8.80;;;;;;;3.24;92.72;99984.28;5022045;28;20061;-66
2022/03/31 09:03:16;;;;;;;12.73;8.98;;;;;;;3.24;92.33;99992.41;5021778;28;20086;-66
2022/03/31 09:05:45;;;;;;;14.15;8.88;;;;;;;3.30;92.05;99999.78;5022368;28;20034;-66
2022/03/31 09:08:12;;;;;;;11.13;8.60;;;;;;;3.25;91.41;100000.38;5019927;28;20388;-66
2022/03/31 09:10:44;;;;;;;11.88;8.60;;;;;;;3.24;91.49;99997.84;5022762;28;20017;-66
2022/03/31 09:13:30;;;;;;;12.55;8.57;;;;;;;3.24;90.95;100006.81;5003023;28;20026;-66
2022/03/31 09:16:01;;;;;;;12.45;9.07;;;;;;;3.17;90.73;100003.25;5020539;28;20026;-66
2022/03/31 09:18:29;;;;;;;11.73;8.43;;;;;;;3.20;91.10;100011.00;5022456;28;20080;-66
2022/03/31 09:20:57;;;;;;;;;;;;;;;3.34;90.33;100014.56;5021132;28;20400;-66
2022/03/31 09:23:26;;;;;;;14.30;10.20;;;;;;;3.34;91.09;100009.16;5020810;28;20023;-65
2022/03/31 09:25:52;;;;;;;15.95;10.63;;;;;;;3.35;90.84;100011.69;5022454;28;20056;-65
2022/03/31 09:28:23;;;;;;;12.32;9.13;;;;;;;3.43;89.54;100002.50;5012624;28;20404;-66
2022/03/31 09:30:53;;;;;;;12.73;9.23;;;;;;;3.41;90.29;100006.47;5002920;28;20381;-65
2022/03/31 09:33:31;;;;;;;13.15;8.82;;;;;;;3.50;90.34;100010.69;5008628;28;20088;-66
2022/03/31 09:36:14;;;;;;;12.43;9.50;;;;;;;3.62;89.93;100004.44;5020362;28;20037;-66
2022/03/31 09:38:44;;;;;;;12.55;9.80;;;;;;;3.60;89.59;100008.41;5022991;28;20087;-66
2022/03/31 09:41:18;;;;;;;12.05;8.88;;;;;;;3.58;89.66;100005.88;5021552;28;20033;-66
2022/03/31 09:43:45;;;;;;;13.02;8.68;;;;;;;3.58;89.62;100007.75;5022736;28;20032;-66
2022/03/31 09:46:40;;;;;;;12.73;9.55;;;;;;;3.69;90.05;100011.75;5022476;28;20108;-66
2022/03/31 09:49:14;;;;;;;12.75;9.32;;;;;;;3.70;89.18;100008.84;5013770;28;20400;-66
2022/03/31 09:51:44;;;;;;;13.38;9.23;;;;;;;3.78;89.23;100005.06;5020674;28;20044;-66
2022/03/31 09:54:10;;;;;;;13.10;9.15;;;;;;;3.79;88.44;100004.88;5020334;28;20494;-66
2022/03/31 09:56:38;;;;;;;13.65;9.60;;;;;;;3.74;88.08;99996.50;5022436;28;20049;-65
2022/03/31 09:59:06;;;;;;;12.32;9.35;;;;;;;3.83;88.77;100005.28;5022796;28;20518;-65
2022/03/31 10:01:32;;;;;;;13.00;9.70;;;;;;;3.90;89.13;99998.84;5019456;28;20079;-65
2022/03/31 10:03:58;;;;;;;12.48;9.80;;;;;;;3.90;88.57;99997.97;5012293;28;20048;-65
2022/03/31 10:06:25;;;;;;;13.93;10.45;;;;;;;3.91;88.91;99996.94;5001227;28;20022;-65
2022/03/31 10:08:51;;;;;;;13.85;9.90;;;;;;;3.89;88.01;99997.13;5015159;28;20472;-65
2022/03/31 10:11:22;;;;;;;13.48;8.38;;;;;;;3.87;87.99;99996.53;5021027;28;20725;-65
2022/03/31 10:14:02;;;;;;;12.52;9.70;;;;;;;3.84;87.80;99993.38;5022291;28;20488;-65
2022/03/31 10:16:41;;;;;;;13.73;10.35;;;;;;;3.90;88.77;100003.41;5022522;28;20379;-65
2022/03/31 10:19:08;;;;;;;13.63;10.15;;;;;;;3.98;88.64;99997.78;5020984;28;20034;-65
2022/03/31 10:21:33;;;;;;;14.27;9.50;;;;;;;4.03;88.71;100000.69;5015510;28;20038;-65
2022/03/31 10:26:43;;;;;;;13.65;9.68;;;;;;;3.97;87.66;99993.41;5022283;28;20064;-65
2022/03/31 10:29:14;;;;;;;13.85;10.45;;;;;;;3.97;88.36;99998.84;5021821;28;20057;-66
2022/03/31 10:31:44;;;;;;;12.88;10.13;;;;;;;4.02;88.20;99990.88;5028219;28;20083;-66
2022/03/31 10:34:11;;;;;;;14.93;11.38;;;;;;;4.06;88.48;99999.47;5028031;28;20029;-66
2022/03/31 10:36:47;;;;;;;16.60;11.68;;;;;;;4.12;88.76;99994.03;5020077;28;20120;-65
2022/03/31 10:39:24;;;;;;;13.98;10.68;;;;;;;4.18;88.06;99996.94;5019407;28;20590;-65
2022/03/31 10:42:10;;;;;;;13.93;10.25;;;;;;;4.20;87.77;99989.41;5017245;28;20435;-65
2022/03/31 10:44:35;;;;;;;14.68;9.90;;;;;;;4.20;87.92;99984.81;5022631;28;20361;-65
2022/03/31 10:47:09;;;;;;;11.20;9.07;;;;;;;4.23;87.57;99997.97;5019117;28;20099;-64
2022/03/31 10:49:36;;;;;;;14.10;9.52;;;;;;;4.27;87.12;99988.38;5022557;28;20033;-65
2022/03/31 10:52:17;;;;;;;12.70;9.80;;;;;;;4.33;87.30;99992.13;5014810;28;20117;-65
2022/03/31 10:54:43;;;;;;;13.30;10.15;;;;;;;4.25;86.01;99990.44;5022853;28;20029;-66
2022/03/31 10:57:09;;;;;;;13.82;11.07;;;;;;;4.24;87.49;99987.94;5021557;28;20040;-66
2022/03/31 10:59:36;;;;;;;13.20;10.05;;;;;;;4.25;87.30;99984.19;5022644;28;20044;-65
2022/03/31 11:02:14;;;;;;;13.80;10.63;;;;;;;4.28;87.61;99989.19;5025935;28;20021;-65
2022/03/31 11:04:58;;;;;;;15.32;11.48;;;;;;;4.40;87.86;99992.94;5024325;28;20445;-65
2022/03/31 11:07:26;;;;;;;13.48;9.82;;;;;;;4.43;87.16;99987.09;5023683;28;20030;-65
2022/03/31 11:10:17;;;;;;;15.55;11.10;;;;;;;4.54;86.70;99981.00;5024596;28;20124;-65
2022/03/31 11:12:42;;;;;;;13.13;10.50;;;;;;;4.47;86.56;99988.34;5025890;28;20033;-65
2022/03/31 11:15:13;;;;;;;13.43;11.55;;;;;;;4.42;85.61;99977.28;5016674;28;20100;-68
2022/03/31 11:17:40;;;;;;;12.98;10.00;;;;;;;4.51;87.21;99984.16;5021717;28;20119;-68
2022/03/31 11:20:18;;;;;;;12.35;9.82;;;;;;;4.59;85.75;99981.19;5022268;28;20404;-66
2022/03/31 11:22:48;;;;;;;13.27;10.32;;;;;;;4.63;85.95;99981.63;5020138;28;20503;-67
2022/03/31 11:25:15;;;;;;;13.57;10.45;;;;;;;4.63;85.61;99977.00;5019427;28;20045;-67
2022/03/31 11:27:42;;;;;;;13.50;10.23;;;;;;;4.69;86.08;99973.41;5005021;28;20026;-67
2022/03/31 11:30:07;;;;;;;13.90;9.68;;;;;;;4.71;85.18;99967.75;5019895;28;20046;-66
2022/03/31 11:32:34;;;;;;;12.32;10.43;;;;;;;4.67;85.05;99961.09;5005684;28;20030;-66
2022/03/31 11:35:01;;;;;;;11.75;9.32;;;;;;;4.65;85.65;99964.00;5020678;28;20030;-66
2022/03/31 11:37:26;;;;;;;14.30;10.52;;;;;;;4.72;86.07;99965.91;5023541;28;20447;-66